Time;durP1;ratioP1;P1;durP2;ratioP2;P2;SDS_P1;SDS_P2;PMS_P1;PMS_P2;Temp;Humidity;BMP_temperature;BMP_pressure;BME280_temperature;BME280_humidity;BME280_pressure;Samples;Min_cycle;Max_cycle;Signal;HPM_P1;HPM_P2
2022/12/23 00:00:06;;;;;;;12.73;7.77;;;12.70;99.90;;;;;;5009283;28;20470;-62
2022/12/23 00:02:34;;;;;;;8.63;5.60;;;12.80;99.90;;;;;;5012335;28;20481;-62
2022/12/23 00:05:01;;;;;;;18.37;4.83;;;12.90;99.90;;;;;;5023328;28;20955;-61
2022/12/23 00:07:28;;;;;;;8.00;5.10;;;12.90;99.90;;;;;;5016041;28;20840;-62
2022/12/23 00:09:54;;;;;;;8.40;5.10;;;13.00;99.90;;;;;;5008570;28;20493;-62
2022/12/23 00:15:07;;;;;;;11.80;6.20;;;13.20;99.90;;;;;;5010831;28;20468;-61
2022/12/23 00:17:36;;;;;;;23.13;7.53;;;13.20;99.90;;;;;;5011178;28;21484;-62
2022/12/23 00:20:03;;;;;;;12.10;7.07;;;13.20;99.90;;;;;;5019453;28;20487;-62
2022/12/23 00:25:15;;;;;;;8.90;5.47;;;13.30;99.90;;;;;;5012356;28;20817;-62
2022/12/23 00:27:42;;;;;;;16.40;9.13;;;13.40;99.90;;;;;;5014395;28;20535;-62
2022/12/23 00:30:10;;;;;;;13.90;8.23;;;13.40;99.90;;;;;;5010281;28;21247;-62
2022/12/23 00:32:38;;;;;;;12.77;7.90;;;13.50;99.90;;;;;;5022196;28;20480;-61
2022/12/23 00:35:05;;;;;;;10.30;6.30;;;13.50;99.90;;;;;;5011501;28;20485;-62
2022/12/23 00:37:32;;;;;;;7.10;4.60;;;13.60;99.90;;;;;;5010089;28;20875;-62
2022/12/23 00:42:55;;;;;;;21.87;9.57;;;13.60;99.90;;;;;;5009926;28;20503;-62
2022/12/23 00:45:22;;;;;;;18.40;7.80;;;13.60;99.90;;;;;;5008940;28;20484;-63
2022/12/23 00:50:38;;;;;;;9.30;5.20;;;13.70;99.90;;;;;;5007978;28;20944;-62
2022/12/23 00:53:06;;;;;;;13.20;7.03;;;13.70;99.90;;;;;;5015294;28;20481;-63
2022/12/23 00:55:32;;;;;;;16.23;7.17;;;13.70;99.90;;;;;;5010682;28;20490;-63
2022/12/23 00:57:59;;;;;;;10.07;4.87;;;13.80;99.90;;;;;;5019637;28;21444;-62
2022/12/23 01:05:58;;;;;;;14.83;4.00;;;13.80;99.90;;;;;;5010235;28;20532;-62
2022/12/23 01:08:24;;;;;;;19.53;9.07;;;13.90;99.90;;;;;;5008596;28;20481;-62
2022/12/23 01:10:51;;;;;;;20.13;6.57;;;13.90;99.90;;;;;;5014235;28;20485;-62
2022/12/23 01:13:17;;;;;;;10.07;3.57;;;13.90;99.90;;;;;;5019377;28;20484;-62
2022/12/23 01:15:44;;;;;;;33.07;15.57;;;13.90;99.90;;;;;;5016473;28;20944;-62
2022/12/23 01:18:12;;;;;;;17.50;8.30;;;13.90;99.90;;;;;;5008687;28;20574;-62
2022/12/23 01:20:40;;;;;;;17.47;6.23;;;14.00;99.90;;;;;;5014624;28;20869;-61
2022/12/23 01:23:07;;;;;;;11.27;6.40;;;14.10;99.90;;;;;;5026916;28;20476;-62
2022/12/23 01:25:33;;;;;;;14.33;6.40;;;14.10;99.90;;;;;;5016250;28;20485;-61
2022/12/23 01:28:00;;;;;;;10.70;4.03;;;14.20;99.90;;;;;;5016919;28;20488;-61
2022/12/23 01:30:27;;;;;;;7.53;4.10;;;14.20;99.90;;;;;;5018858;28;20483;-62
2022/12/23 01:32:53;;;;;;;8.23;4.50;;;14.20;99.90;;;;;;5015200;28;20469;-61
2022/12/23 01:35:21;;;;;;;8.43;3.40;;;14.20;99.90;;;;;;5017555;28;20538;-62
2022/12/23 01:37:48;;;;;;;16.40;8.60;;;14.30;99.90;;;;;;5026974;28;21509;-61
2022/12/23 01:40:15;;;;;;;10.07;5.77;;;14.30;99.90;;;;;;5016650;28;20919;-62
2022/12/23 01:42:43;;;;;;;15.70;5.47;;;14.30;99.90;;;;;;5013877;28;20488;-61
2022/12/23 01:45:18;;;;;;;10.60;5.70;;;14.30;99.90;;;;;;5011142;28;20491;-62
2022/12/23 01:47:50;;;;;;;22.50;10.63;;;14.30;99.90;;;;;;5012213;28;20476;-62
2022/12/23 01:50:23;;;;;;;9.67;5.00;;;14.30;99.90;;;;;;5012759;28;20555;-61
2022/12/23 01:52:55;;;;;;;14.27;7.30;;;14.30;99.90;;;;;;5010141;28;20484;-61
2022/12/23 01:55:24;;;;;;;17.67;5.13;;;14.20;99.90;;;;;;5042521;28;20481;-61
2022/12/23 01:57:55;;;;;;;8.90;5.37;;;14.20;99.90;;;;;;5014287;28;20824;-61
2022/12/23 02:09:15;;;;;;;14.20;5.77;;;14.20;99.90;;;;;;5027761;28;20831;-62
2022/12/23 02:11:39;;;;;;;9.90;5.50;;;14.30;99.90;;;;;;5013576;28;21048;-62
2022/12/23 02:17:09;;;;;;;14.97;7.30;;;14.30;99.90;;;;;;5014977;28;20518;-61
2022/12/23 02:20:06;;;;;;;13.60;5.83;;;14.30;99.90;;;;;;5010816;28;20547;-61
2022/12/23 02:22:55;;;;;;;7.47;4.13;;;14.20;99.90;;;;;;5007304;28;20476;-61
2022/12/23 02:25:54;;;;;;;9.90;5.00;;;14.10;99.90;;;;;;5018153;28;20477;-61
2022/12/23 02:28:53;;;;;;;8.73;4.63;;;14.10;99.90;;;;;;5020260;28;20468;-62
2022/12/23 02:31:27;;;;;;;13.10;5.80;;;14.10;99.90;;;;;;5013847;28;20481;-61
2022/12/23 02:34:01;;;;;;;10.33;4.50;;;14.00;99.90;;;;;;5015833;28;20480;-61
2022/12/23 02:36:37;;;;;;;11.63;5.93;;;14.00;99.90;;;;;;5015368;28;20506;-61
2022/12/23 02:39:09;;;;;;;13.10;6.73;;;14.00;99.90;;;;;;5008193;28;20975;-61
2022/12/23 02:41:42;;;;;;;15.60;4.73;;;13.90;99.90;;;;;;5018911;28;20758;-61
2022/12/23 02:44:18;;;;;;;8.20;4.57;;;13.80;99.90;;;;;;5017552;28;20530;-61
2022/12/23 02:46:49;;;;;;;24.23;7.60;;;13.80;99.90;;;;;;5013719;28;20516;-61
2022/12/23 02:49:23;;;;;;;11.90;6.00;;;13.70;99.90;;;;;;5015270;28;20986;-61
2022/12/23 02:51:54;;;;;;;16.57;7.80;;;13.80;99.90;;;;;;5006557;28;20508;-62
2022/12/23 02:54:25;;;;;;;10.90;6.00;;;13.80;99.90;;;;;;5040747;28;20845;-62
2022/12/23 02:56:53;;;;;;;8.70;4.13;;;13.70;99.90;;;;;;5015338;28;21009;-61
2022/12/23 02:59:24;;;;;;;14.70;4.57;;;13.70;99.90;;;;;;5012861;28;20470;-61
2022/12/23 03:01:53;;;;;;;16.50;7.50;;;13.70;99.90;;;;;;5029210;28;20903;-61
2022/12/23 03:04:20;;;;;;;10.03;5.20;;;13.70;99.90;;;;;;5021194;28;20485;-61
2022/12/23 03:06:54;;;;;;;11.13;4.77;;;13.60;99.90;;;;;;5016190;28;20910;-61
2022/12/23 03:09:29;;;;;;;12.10;6.17;;;13.50;99.90;;;;;;5014771;28;20504;-62
2022/12/23 03:12:05;;;;;;;9.80;2.57;;;13.50;99.90;;;;;;5016313;28;20984;-61
2022/12/23 03:14:50;;;;;;;13.17;5.77;;;13.50;99.90;;;;;;5017739;28;20534;-61
2022/12/23 03:17:35;;;;;;;18.37;6.23;;;13.40;99.90;;;;;;5008524;28;21128;-61
2022/12/23 03:20:09;;;;;;;18.23;7.93;;;13.40;99.90;;;;;;5013442;28;20484;-61
2022/12/23 03:22:39;;;;;;;12.43;5.63;;;13.40;99.90;;;;;;5019036;28;20504;-62
2022/12/23 03:25:13;;;;;;;11.20;5.40;;;13.40;99.90;;;;;;5011930;28;20483;-62
2022/12/23 03:27:42;;;;;;;30.70;7.63;;;13.30;99.90;;;;;;5013956;28;20847;-62
2022/12/23 03:30:12;;;;;;;15.67;7.27;;;13.40;99.90;;;;;;5007076;28;20469;-62
2022/12/23 03:32:46;;;;;;;17.13;7.60;;;13.30;99.90;;;;;;5006709;28;20660;-61
2022/12/23 03:35:16;;;;;;;13.33;6.30;;;13.30;99.90;;;;;;5002402;28;20481;-62
2022/12/23 03:37:46;;;;;;;19.20;8.40;;;13.30;99.90;;;;;;5012198;28;20489;-62
2022/12/23 03:40:16;;;;;;;27.83;7.60;;;13.30;99.90;;;;;;5022011;28;21002;-62
2022/12/23 03:42:46;;;;;;;20.60;9.30;;;13.30;99.90;;;;;;5034419;28;21077;-62
2022/12/23 03:45:16;;;;;;;6.70;3.60;;;13.40;99.90;;;;;;5031079;28;20508;-60
2022/12/23 03:47:50;;;;;;;27.83;9.90;;;13.30;99.90;;;;;;5026084;28;20890;-61
2022/12/23 03:50:19;;;;;;;11.57;5.67;;;13.40;99.90;;;;;;5016743;28;20543;-61
2022/12/23 03:52:51;;;;;;;15.07;5.97;;;14.90;99.90;;;;;;5032306;28;20514;-61
2022/12/23 03:55:24;;;;;;;12.30;6.20;;;13.50;99.90;;;;;;5020817;28;20530;-61
2022/12/23 03:57:58;;;;;;;11.67;5.50;;;13.50;99.90;;;;;;5018169;28;20485;-62
2022/12/23 04:00:28;;;;;;;8.70;4.17;;;13.50;99.90;;;;;;5015883;28;20485;-61
2022/12/23 04:03:02;;;;;;;10.87;5.03;;;13.40;99.90;;;;;;5018805;28;20485;-62
2022/12/23 04:05:34;;;;;;;7.77;2.90;;;13.30;99.90;;;;;;5018588;28;20515;-62
2022/12/23 04:08:08;;;;;;;6.00;3.10;;;13.20;99.90;;;;;;5015974;28;20489;-61
2022/12/23 04:10:35;;;;;;;11.03;5.63;;;13.10;99.90;;;;;;5014665;28;20535;-62
2022/12/23 04:13:01;;;;;;;7.17;4.20;;;13.00;99.90;;;;;;5015269;28;20554;-62
2022/12/23 04:15:28;;;;;;;9.67;4.73;;;13.00;99.90;;;;;;5016355;28;20523;-62
2022/12/23 04:17:58;;;;;;;6.60;3.70;;;13.00;99.90;;;;;;5012637;28;20489;-62
2022/12/23 04:20:25;;;;;;;10.57;5.60;;;13.00;99.90;;;;;;5014081;28;21083;-62
2022/12/23 04:22:52;;;;;;;10.53;5.30;;;13.00;99.90;;;;;;5015796;28;20476;-61
2022/12/23 04:25:19;;;;;;;11.77;4.17;;;13.00;99.90;;;;;;5017260;28;21073;-61
2022/12/23 04:27:45;;;;;;;15.80;6.73;;;13.00;99.90;;;;;;5017734;28;20869;-62
2022/12/23 04:30:13;;;;;;;13.07;6.87;;;13.00;99.90;;;;;;5020272;28;20477;-61
2022/12/23 04:32:40;;;;;;;22.10;8.43;;;13.10;99.90;;;;;;5015359;28;20477;-62
2022/12/23 04:35:09;;;;;;;12.40;6.23;;;13.10;99.90;;;;;;5015609;28;20904;-62
2022/12/23 04:37:36;;;;;;;10.23;5.23;;;13.10;99.90;;;;;;5016562;28;20494;-61
2022/12/23 04:40:03;;;;;;;15.47;7.40;;;13.20;99.90;;;;;;5014433;28;20523;-61
2022/12/23 04:42:29;;;;;;;9.03;4.77;;;13.10;99.90;;;;;;5016458;28;20543;-62
2022/12/23 04:44:56;;;;;;;10.60;4.70;;;13.10;99.90;;;;;;5016572;28;20878;-62
2022/12/23 04:47:23;;;;;;;10.70;4.50;;;13.20;99.90;;;;;;5033098;28;20551;-61
2022/12/23 04:49:49;;;;;;;22.33;7.80;;;13.20;99.90;;;;;;5015445;28;20531;-61
2022/12/23 04:52:17;;;;;;;13.30;6.80;;;13.20;99.90;;;;;;5018939;28;20485;-62
2022/12/23 04:54:44;;;;;;;16.13;7.70;;;13.20;99.90;;;;;;5032352;28;20480;-61
2022/12/23 04:57:11;;;;;;;10.13;5.63;;;13.20;99.90;;;;;;5035181;28;20481;-61
2022/12/23 04:59:38;;;;;;;16.73;8.07;;;13.20;99.90;;;;;;5036255;28;21049;-61
2022/12/23 05:02:04;;;;;;;9.60;4.97;;;13.20;99.90;;;;;;5032640;28;20494;-62
2022/12/23 05:04:31;;;;;;;12.17;6.10;;;13.20;99.90;;;;;;5034845;28;20685;-61
2022/12/23 05:06:58;;;;;;;8.03;4.50;;;13.20;99.90;;;;;;5034094;28;20904;-62
2022/12/23 05:09:26;;;;;;;16.33;5.90;;;13.20;99.90;;;;;;5035713;28;20488;-61
2022/12/23 05:11:53;;;;;;;9.60;5.17;;;13.20;99.90;;;;;;5033564;28;21091;-61
2022/12/23 05:14:19;;;;;;;14.30;6.90;;;13.30;99.90;;;;;;5035580;28;20472;-61
2022/12/23 05:16:46;;;;;;;22.20;7.97;;;13.20;99.90;;;;;;5036764;28;20483;-61
2022/12/23 05:19:13;;;;;;;10.00;5.17;;;13.20;99.90;;;;;;5036366;28;20537;-61
2022/12/23 05:21:40;;;;;;;26.63;11.03;;;13.20;99.90;;;;;;5024667;28;20481;-61
2022/12/23 05:24:07;;;;;;;12.13;4.53;;;13.10;99.90;;;;;;5016281;28;20835;-61
2022/12/23 05:26:35;;;;;;;11.90;6.30;;;13.00;99.90;;;;;;5013308;28;20508;-62
2022/12/23 05:29:01;;;;;;;10.00;5.17;;;13.00;99.90;;;;;;5012343;28;20717;-62
2022/12/23 05:31:28;;;;;;;17.17;6.60;;;13.00;99.90;;;;;;5024390;28;20723;-62
2022/12/23 05:33:55;;;;;;;7.87;3.60;;;13.00;99.90;;;;;;5022070;28;20477;-62
2022/12/23 05:36:21;;;;;;;8.13;5.27;;;12.90;99.90;;;;;;5027417;28;20492;-61
2022/12/23 05:38:48;;;;;;;11.77;5.93;;;13.00;99.90;;;;;;5034753;28;20507;-62
2022/12/23 05:41:15;;;;;;;7.47;5.37;;;13.10;99.90;;;;;;5033727;28;20480;-62
2022/12/23 05:43:43;;;;;;;17.23;10.00;;;13.10;99.90;;;;;;5025753;28;20889;-62
2022/12/23 05:46:10;;;;;;;14.10;5.40;;;13.10;99.90;;;;;;5023368;28;20879;-62
2022/12/23 05:48:37;;;;;;;10.37;6.77;;;13.10;99.90;;;;;;5022545;28;20480;-62
2022/12/23 05:51:04;;;;;;;7.90;5.60;;;13.00;99.90;;;;;;5026080;28;20607;-62
2022/12/23 05:53:31;;;;;;;16.10;5.93;;;13.00;99.90;;;;;;5034106;28;20484;-62
2022/12/23 05:55:57;;;;;;;4.40;3.40;;;13.00;99.90;;;;;;5034408;28;20489;-62
2022/12/23 05:58:24;;;;;;;7.47;4.57;;;13.00;99.90;;;;;;5032434;28;20561;-61
2022/12/23 06:00:52;;;;;;;14.53;7.60;;;13.00;99.90;;;;;;5032576;28;20484;-62
2022/12/23 06:03:19;;;;;;;7.17;4.70;;;13.10;99.90;;;;;;5026931;28;20789;-62
2022/12/23 06:05:50;;;;;;;17.43;9.27;;;13.10;99.90;;;;;;5029315;28;20542;-62
2022/12/23 06:08:17;;;;;;;7.37;4.40;;;13.20;99.90;;;;;;5020061;28;20619;-62
2022/12/23 06:10:44;;;;;;;21.73;10.40;;;13.20;99.90;;;;;;5019695;28;20488;-62
2022/12/23 06:13:10;;;;;;;10.00;5.50;;;13.30;99.90;;;;;;5044219;28;20500;-62
2022/12/23 06:15:37;;;;;;;16.47;4.83;;;13.30;99.90;;;;;;5034038;28;20488;-62
2022/12/23 06:18:05;;;;;;;10.73;4.43;;;13.30;99.90;;;;;;5034240;28;20513;-62
2022/12/23 06:20:32;;;;;;;13.77;6.70;;;13.30;99.90;;;;;;5033383;28;20537;-62
2022/12/23 06:22:59;;;;;;;5.53;3.40;;;13.30;99.90;;;;;;5034747;28;20507;-62
2022/12/23 06:25:25;;;;;;;8.23;4.83;;;13.20;99.90;;;;;;5032879;28;20530;-62
2022/12/23 06:27:52;;;;;;;9.23;5.03;;;13.30;99.90;;;;;;5034604;28;20529;-62
2022/12/23 06:30:19;;;;;;;25.27;5.90;;;13.20;99.90;;;;;;5024913;28;20563;-62
2022/12/23 06:32:45;;;;;;;19.43;8.60;;;13.10;99.90;;;;;;5035934;28;20527;-62
2022/12/23 06:35:13;;;;;;;9.10;5.00;;;13.10;99.90;;;;;;5040470;28;20490;-62
2022/12/23 06:37:40;;;;;;;10.70;6.00;;;13.00;99.90;;;;;;5035186;28;21928;-62
2022/12/23 06:40:08;;;;;;;21.30;9.63;;;13.00;99.90;;;;;;5030425;28;20484;-62
2022/12/23 06:42:35;;;;;;;13.40;6.80;;;13.00;99.90;;;;;;5036707;28;20720;-62
2022/12/23 06:45:01;;;;;;;9.30;4.17;;;13.00;99.90;;;;;;5035790;28;20481;-61
2022/12/23 06:47:28;;;;;;;10.17;5.60;;;13.00;99.90;;;;;;5030546;28;20794;-63
2022/12/23 06:49:55;;;;;;;10.03;5.70;;;12.90;99.90;;;;;;5032674;28;20815;-61
2022/12/23 06:52:23;;;;;;;33.97;6.53;;;12.90;99.90;;;;;;5034586;28;21266;-62
2022/12/23 06:54:49;;;;;;;14.37;6.70;;;13.00;99.90;;;;;;5033873;28;20863;-61
2022/12/23 06:57:16;;;;;;;9.17;5.43;;;12.90;99.90;;;;;;5032894;28;20553;-62
2022/12/23 06:59:43;;;;;;;34.07;10.00;;;12.90;99.90;;;;;;5032907;28;20553;-62
2022/12/23 07:02:10;;;;;;;13.53;6.17;;;12.80;99.90;;;;;;5030148;28;20484;-62
2022/12/23 07:04:36;;;;;;;19.57;7.17;;;12.80;99.90;;;;;;5026122;28;20493;-62
2022/12/23 07:07:03;;;;;;;20.57;5.33;;;12.70;99.90;;;;;;5030661;28;20495;-62
2022/12/23 07:09:31;;;;;;;17.70;6.87;;;12.70;99.90;;;;;;5034191;28;20502;-62
2022/12/23 07:11:58;;;;;;;11.43;3.97;;;12.70;99.90;;;;;;5022637;28;20496;-61
2022/12/23 07:14:24;;;;;;;28.07;5.67;;;12.60;99.90;;;;;;5032552;28;20546;-63
2022/12/23 07:16:51;;;;;;;20.80;7.53;;;12.60;99.90;;;;;;5033351;28;20476;-62
2022/12/23 07:19:18;;;;;;;13.80;5.50;;;12.60;99.90;;;;;;5030251;28;20714;-62
2022/12/23 07:21:44;;;;;;;31.57;12.07;;;12.50;99.90;;;;;;5024636;28;20506;-62
2022/12/23 07:24:11;;;;;;;14.00;6.53;;;12.40;99.90;;;;;;5021936;28;20872;-62
2022/12/23 07:26:39;;;;;;;18.43;7.57;;;12.50;99.90;;;;;;5011087;28;20964;-62
2022/12/23 07:29:06;;;;;;;12.60;5.77;;;12.50;99.90;;;;;;5016368;28;20821;-62
2022/12/23 07:31:33;;;;;;;17.70;7.00;;;12.50;99.90;;;;;;5035815;28;20533;-61
2022/12/23 07:33:59;;;;;;;8.00;3.63;;;12.50;99.90;;;;;;5029444;28;20472;-61
2022/12/23 07:36:26;;;;;;;9.10;3.77;;;12.60;99.90;;;;;;5034519;28;20480;-62
2022/12/23 07:38:53;;;;;;;16.90;5.77;;;12.60;99.90;;;;;;5034413;28;20535;-61
2022/12/23 07:41:20;;;;;;;20.60;7.50;;;12.60;99.90;;;;;;5035978;28;20484;-62
2022/12/23 07:43:48;;;;;;;20.53;7.23;;;12.60;99.90;;;;;;5036670;28;21051;-61
2022/12/23 07:46:14;;;;;;;12.53;4.93;;;12.70;99.90;;;;;;5038722;28;20496;-61
2022/12/23 07:48:41;;;;;;;23.60;8.77;;;12.70;99.90;;;;;;5030168;28;20542;-62
2022/12/23 07:51:08;;;;;;;17.67;6.20;;;12.60;99.90;;;;;;5035629;28;20484;-62
2022/12/23 07:53:35;;;;;;;15.70;5.63;;;12.60;99.90;;;;;;5027595;28;20619;-61
2022/12/23 07:56:01;;;;;;;9.20;3.90;;;12.60;99.90;;;;;;5022345;28;20535;-60
2022/12/23 07:58:28;;;;;;;17.33;6.00;;;12.60;99.90;;;;;;5018981;28;20926;-62
2022/12/23 08:01:01;;;;;;;15.90;5.80;;;12.70;99.90;;;;;;5016150;28;20490;-62
2022/12/23 08:03:28;;;;;;;11.90;4.70;;;12.70;99.90;;;;;;5019761;28;20962;-62
2022/12/23 08:06:00;;;;;;;26.07;4.23;;;12.70;99.90;;;;;;5036613;28;21069;-62
2022/12/23 08:08:27;;;;;;;12.47;5.37;;;12.70;99.90;;;;;;5034675;28;21078;-62
2022/12/23 08:10:57;;;;;;;12.57;4.90;;;12.70;99.90;;;;;;5019220;28;20677;-61
2022/12/23 08:13:23;;;;;;;12.00;3.80;;;12.70;99.90;;;;;;5015027;28;21286;-61
2022/12/23 08:15:54;;;;;;;17.63;7.73;;;12.80;99.90;;;;;;5016203;28;21119;-62
2022/12/23 08:18:23;;;;;;;6.60;3.37;;;12.80;99.90;;;;;;5016823;28;20992;-61
2022/12/23 08:20:57;;;;;;;21.27;8.03;;;12.80;99.90;;;;;;5009083;28;20477;-61
2022/12/23 08:23:24;;;;;;;15.33;5.50;;;12.80;99.90;;;;;;5037253;28;20941;-61
2022/12/23 08:25:59;;;;;;;11.90;5.20;;;12.80;99.90;;;;;;5013171;28;20473;-61
2022/12/23 08:28:25;;;;;;;12.87;5.90;;;12.80;99.90;;;;;;5031551;28;20809;-61
2022/12/23 08:30:52;;;;;;;13.80;5.97;;;12.80;99.90;;;;;;5036558;28;20512;-61
2022/12/23 08:33:19;;;;;;;16.83;5.07;;;12.80;99.90;;;;;;5036013;28;20480;-61
2022/12/23 08:35:47;;;;;;;18.43;7.80;;;12.80;99.90;;;;;;5039256;28;20487;-61
2022/12/23 08:38:14;;;;;;;11.90;5.80;;;12.90;99.90;;;;;;5039193;28;20484;-61
2022/12/23 08:40:41;;;;;;;23.80;8.33;;;12.80;99.90;;;;;;5034694;28;20484;-61
2022/12/23 08:43:08;;;;;;;10.00;4.60;;;12.80;99.90;;;;;;5038521;28;20484;-61
2022/12/23 08:45:37;;;;;;;14.87;6.97;;;12.80;99.90;;;;;;5035165;28;20473;-61
2022/12/23 08:48:04;;;;;;;16.23;7.20;;;12.70;99.90;;;;;;5037289;28;20484;-61
2022/12/23 08:50:30;;;;;;;13.10;7.43;;;12.80;99.90;;;;;;5025098;28;20569;-61
2022/12/23 08:52:58;;;;;;;14.33;4.90;;;12.80;99.90;;;;;;5038926;28;20937;-61
2022/12/23 08:55:25;;;;;;;14.17;5.67;;;12.80;99.90;;;;;;5038981;28;20504;-61
2022/12/23 08:57:52;;;;;;;14.00;7.60;;;12.80;99.90;;;;;;5033682;28;20499;-61
2022/12/23 09:00:19;;;;;;;15.30;7.77;;;12.80;99.90;;;;;;5028679;28;20489;-61
2022/12/23 09:02:45;;;;;;;23.93;8.73;;;12.80;99.90;;;;;;5036050;28;20484;-62
2022/12/23 09:05:12;;;;;;;11.93;6.17;;;12.80;99.90;;;;;;5035102;28;20473;-62
2022/12/23 09:07:39;;;;;;;20.77;9.30;;;12.80;99.90;;;;;;5031413;28;20476;-61
2022/12/23 09:10:08;;;;;;;18.63;7.40;;;12.70;99.90;;;;;;5034325;28;20472;-61
2022/12/23 09:12:35;;;;;;;16.10;7.50;;;12.80;99.90;;;;;;5035730;28;20485;-60
2022/12/23 09:15:01;;;;;;;10.37;5.70;;;12.80;99.90;;;;;;5035430;28;20796;-61
2022/12/23 09:17:28;;;;;;;17.63;6.63;;;12.90;99.90;;;;;;5035947;28;20476;-61
2022/12/23 09:19:55;;;;;;;15.40;6.97;;;12.80;99.90;;;;;;5034593;28;20808;-61
2022/12/23 09:22:21;;;;;;;11.60;6.00;;;12.80;99.90;;;;;;5033494;28;21011;-62
2022/12/23 09:24:48;;;;;;;19.00;7.20;;;12.80;99.90;;;;;;5034485;28;20492;-62
2022/12/23 09:27:16;;;;;;;10.20;5.60;;;12.90;99.90;;;;;;5025355;28;20476;-62
2022/12/23 09:29:43;;;;;;;15.80;6.90;;;12.90;99.90;;;;;;5028573;28;20496;-61
2022/12/23 09:32:09;;;;;;;18.60;6.47;;;12.90;99.90;;;;;;5019965;28;20478;-62
2022/12/23 09:34:36;;;;;;;9.43;4.73;;;12.80;99.90;;;;;;5020546;28;20860;-61
2022/12/23 09:37:03;;;;;;;15.63;6.60;;;12.80;99.90;;;;;;5014526;28;20817;-62
2022/12/23 09:39:30;;;;;;;14.70;4.90;;;12.80;99.90;;;;;;5013912;28;20489;-62
2022/12/23 09:42:05;;;;;;;8.17;4.37;;;12.90;99.90;;;;;;5013423;28;20481;-61
2022/12/23 09:44:58;;;;;;;9.40;4.80;;;12.90;99.90;;;;;;5021846;28;20898;-61
2022/12/23 09:47:27;;;;;;;13.10;6.60;;;12.90;99.90;;;;;;5037012;28;20471;-61
2022/12/23 09:49:59;;;;;;;20.13;5.57;;;12.90;99.90;;;;;;5025095;28;20683;-61
2022/12/23 09:52:36;;;;;;;9.43;4.40;;;12.90;99.90;;;;;;5018546;28;21318;-62
2022/12/23 09:55:03;;;;;;;12.70;6.00;;;13.00;99.90;;;;;;5034596;28;20476;-62
2022/12/23 09:57:35;;;;;;;17.20;7.97;;;13.00;99.90;;;;;;5035561;28;20472;-61
2022/12/23 10:00:07;;;;;;;17.90;8.40;;;13.00;99.90;;;;;;5033941;28;20472;-61
2022/12/23 10:02:53;;;;;;;14.77;5.67;;;13.00;99.90;;;;;;5034095;28;20484;-61
2022/12/23 10:05:30;;;;;;;19.03;8.53;;;13.20;99.90;;;;;;5035739;28;21030;-62
2022/12/23 10:08:02;;;;;;;7.77;4.57;;;13.20;99.90;;;;;;5036725;28;20484;-62
2022/12/23 10:10:35;;;;;;;13.83;6.37;;;13.20;99.90;;;;;;5029879;28;20557;-61
2022/12/23 10:13:05;;;;;;;13.97;8.00;;;13.20;99.90;;;;;;5034889;28;20472;-61
2022/12/23 10:15:37;;;;;;;18.23;8.83;;;13.30;99.90;;;;;;5034873;28;20478;-62
2022/12/23 10:18:06;;;;;;;17.70;8.40;;;13.30;99.90;;;;;;5034622;28;20538;-61
2022/12/23 10:20:41;;;;;;;18.87;8.40;;;13.40;99.90;;;;;;5027894;28;20479;-62
2022/12/23 10:23:16;;;;;;;22.20;7.77;;;13.50;99.90;;;;;;5030565;28;20479;-62
2022/12/23 10:25:49;;;;;;;33.03;11.30;;;13.40;99.90;;;;;;5015682;28;20835;-62
2022/12/23 10:28:16;;;;;;;20.97;9.33;;;13.60;99.90;;;;;;5015249;28;20487;-62
2022/12/23 10:30:51;;;;;;;42.30;11.93;;;13.60;99.90;;;;;;5022332;28;20472;-61
2022/12/23 10:33:23;;;;;;;19.80;8.37;;;13.70;99.90;;;;;;5031065;28;20488;-62
2022/12/23 10:36:00;;;;;;;30.83;10.70;;;13.60;99.90;;;;;;5032451;28;20495;-62
2022/12/23 10:38:46;;;;;;;16.37;6.30;;;13.70;99.90;;;;;;5034806;28;20484;-62
2022/12/23 10:41:22;;;;;;;17.97;6.27;;;13.70;99.90;;;;;;5020182;28;20487;-61
2022/12/23 10:44:11;;;;;;;24.60;9.80;;;13.70;99.90;;;;;;5033854;28;20485;-61
2022/12/23 10:46:51;;;;;;;27.17;8.70;;;13.70;99.90;;;;;;5022536;28;20480;-62
2022/12/23 10:49:29;;;;;;;15.37;6.50;;;13.70;99.90;;;;;;5018680;28;20646;-61
2022/12/23 10:51:58;;;;;;;17.30;5.17;;;13.70;99.90;;;;;;5031077;28;20691;-61
2022/12/23 10:54:29;;;;;;;16.13;6.53;;;13.70;99.90;;;;;;5034710;28;21156;-61
2022/12/23 10:56:56;;;;;;;12.00;5.10;;;13.70;99.90;;;;;;5037873;28;20484;-62
2022/12/23 10:59:26;;;;;;;17.30;6.73;;;13.70;99.90;;;;;;5037898;28;20475;-61
2022/12/23 11:02:00;;;;;;;15.23;6.50;;;13.60;99.90;;;;;;5036340;28;20963;-62
2022/12/23 11:04:33;;;;;;;24.87;5.97;;;13.60;99.90;;;;;;5038514;28;20480;-62
2022/12/23 11:07:02;;;;;;;10.30;4.87;;;13.70;99.90;;;;;;5038332;28;20480;-62
2022/12/23 11:09:37;;;;;;;12.13;4.90;;;13.70;99.90;;;;;;5038893;28;20492;-62
2022/12/23 11:12:06;;;;;;;13.47;5.80;;;13.70;99.90;;;;;;5035318;28;20482;-62
2022/12/23 11:14:37;;;;;;;12.17;5.43;;;13.70;99.90;;;;;;5039513;28;20480;-62
2022/12/23 11:17:17;;;;;;;9.80;3.97;;;13.60;99.90;;;;;;5039841;28;20488;-61
2022/12/23 11:19:43;;;;;;;20.97;8.17;;;13.60;99.90;;;;;;5026477;28;20481;-61
2022/12/23 11:22:23;;;;;;;22.33;7.17;;;13.50;99.90;;;;;;5036251;28;20483;-62
2022/12/23 11:24:50;;;;;;;22.30;7.83;;;13.50;99.90;;;;;;5019288;28;20469;-62
2022/12/23 11:27:17;;;;;;;10.00;3.97;;;13.50;99.90;;;;;;5030159;28;20489;-62
2022/12/23 11:29:47;;;;;;;31.47;9.87;;;13.60;99.90;;;;;;5032447;28;20492;-62
2022/12/23 11:32:21;;;;;;;15.60;5.40;;;13.60;99.90;;;;;;5027794;28;20484;-62
2022/12/23 11:34:50;;;;;;;34.30;9.17;;;13.60;99.90;;;;;;5033411;28;20857;-62
2022/12/23 11:37:35;;;;;;;15.33;4.40;;;13.50;99.90;;;;;;5037357;28;20931;-62
2022/12/23 11:40:03;;;;;;;32.10;8.37;;;13.60;99.90;;;;;;5031302;28;20611;-61
2022/12/23 11:42:31;;;;;;;16.27;4.43;;;13.60;99.90;;;;;;5033469;28;21067;-62
2022/12/23 11:45:00;;;;;;;16.33;5.43;;;13.50;99.90;;;;;;5037463;28;20549;-62
2022/12/23 11:47:35;;;;;;;15.80;4.50;;;13.50;99.90;;;;;;5020822;28;20496;-62
2022/12/23 11:50:21;;;;;;;30.57;8.53;;;13.50;99.90;;;;;;5017852;28;20473;-62
2022/12/23 11:52:51;;;;;;;26.50;8.63;;;13.50;99.90;;;;;;5026626;28;20481;-62
2022/12/23 11:55:24;;;;;;;18.13;5.63;;;13.60;99.90;;;;;;5034573;28;20526;-62
2022/12/23 11:57:52;;;;;;;34.57;9.40;;;13.60;99.90;;;;;;5021517;28;20631;-62
2022/12/23 12:00:21;;;;;;;26.77;6.53;;;13.60;99.90;;;;;;5037314;28;20493;-62
2022/12/23 12:02:52;;;;;;;34.60;8.77;;;13.70;99.90;;;;;;5018169;28;20547;-62
2022/12/23 12:05:25;;;;;;;24.13;5.67;;;13.80;99.90;;;;;;5021554;28;20494;-62
2022/12/23 12:07:52;;;;;;;19.93;5.83;;;13.80;99.90;;;;;;5044782;28;20496;-62
2022/12/23 12:10:22;;;;;;;29.93;9.00;;;13.80;99.90;;;;;;5029743;28;20489;-62
2022/12/23 12:12:53;;;;;;;33.57;8.33;;;12.00;99.90;;;;;;5019725;28;20977;-62
2022/12/23 12:15:26;;;;;;;11.23;4.27;;;13.90;99.90;;;;;;5019097;28;20489;-62
2022/12/23 12:17:57;;;;;;;17.50;5.77;;;14.00;99.90;;;;;;5036610;28;20480;-61
2022/12/23 12:20:29;;;;;;;14.20;5.37;;;14.00;99.90;;;;;;5025350;28;20479;-63
2022/12/23 12:23:02;;;;;;;13.63;4.67;;;13.90;99.90;;;;;;5041997;28;20708;-62
2022/12/23 12:25:38;;;;;;;16.97;4.80;;;14.00;99.90;;;;;;5036838;28;20492;-62
2022/12/23 12:28:11;;;;;;;23.47;6.10;;;14.00;99.90;;;;;;5009304;28;20489;-61
2022/12/23 12:30:43;;;;;;;35.60;8.30;;;14.00;99.90;;;;;;5042659;28;20485;-62
2022/12/23 12:33:19;;;;;;;19.73;5.47;;;14.00;99.90;;;;;;5014363;28;20542;-62
2022/12/23 12:35:49;;;;;;;43.40;9.93;;;14.00;99.90;;;;;;5014324;28;20796;-62
2022/12/23 12:38:21;;;;;;;24.13;6.60;;;14.00;99.90;;;;;;5013698;28;20460;-61
2022/12/23 12:40:52;;;;;;;37.60;10.50;;;14.10;99.90;;;;;;4994859;28;20519;-62
2022/12/23 12:43:26;;;;;;;33.17;9.00;;;14.00;99.90;;;;;;4999474;28;20480;-62
2022/12/23 12:46:06;;;;;;;26.60;7.50;;;14.00;99.90;;;;;;5005957;28;20473;-62
2022/12/23 12:48:41;;;;;;;20.50;6.00;;;13.90;99.90;;;;;;5018859;28;21081;-62
2022/12/23 12:51:16;;;;;;;36.97;9.30;;;14.10;99.90;;;;;;5014386;28;20469;-62
2022/12/23 12:53:56;;;;;;;25.73;6.93;;;13.90;99.90;;;;;;5012968;28;20515;-62
2022/12/23 12:56:27;;;;;;;27.73;7.97;;;14.00;99.90;;;;;;5004523;28;20473;-62
2022/12/23 12:58:54;;;;;;;25.27;7.23;;;14.10;99.90;;;;;;5007887;28;20481;-62
2022/12/23 13:01:34;;;;;;;21.30;6.33;;;14.20;99.90;;;;;;5009220;28;20489;-61
2022/12/23 13:04:42;;;;;;;19.60;5.10;;;14.20;99.90;;;;;;5009006;28;21038;-62
2022/12/23 13:07:21;;;;;;;16.73;5.37;;;14.20;99.90;;;;;;4987642;28;20818;-62
2022/12/23 13:09:57;;;;;;;31.63;9.37;;;14.20;99.90;;;;;;5015834;28;20485;-62
2022/12/23 13:12:34;;;;;;;17.93;5.73;;;14.20;99.90;;;;;;5021413;28;20469;-62
2022/12/23 13:15:11;;;;;;;12.50;4.20;;;14.20;99.90;;;;;;5024753;28;20488;-62
2022/12/23 13:17:45;;;;;;;26.73;7.63;;;14.20;99.90;;;;;;5023159;28;20477;-63
2022/12/23 13:20:23;;;;;;;37.53;9.20;;;14.20;99.90;;;;;;5016310;28;20609;-62